createdAt,value
2024-04-18T00:02:23.434Z,4.64
2024-04-18T00:04:50.419Z,4.65
2024-04-18T00:07:19.828Z,4.65
2024-04-18T00:09:46.655Z,4.68
2024-04-18T00:12:16.091Z,4.66
2024-04-18T00:14:42.833Z,4.70
2024-04-18T00:17:14.841Z,4.67
2024-04-18T00:19:41.591Z,4.65
2024-04-18T00:22:10.910Z,4.67
2024-04-18T00:24:37.730Z,4.66
2024-04-18T00:27:07.452Z,4.71
2024-04-18T00:29:36.647Z,4.72
2024-04-18T00:32:06.356Z,4.71
2024-04-18T00:34:35.854Z,4.78
2024-04-18T00:37:05.252Z,4.77
2024-04-18T00:39:32.188Z,4.82
2024-04-18T00:42:01.602Z,4.83
2024-04-18T00:44:28.528Z,4.69
2024-04-18T00:46:58.926Z,4.73
2024-04-18T00:49:26.012Z,4.64
2024-04-18T00:51:58.674Z,4.70
2024-04-18T00:54:25.568Z,4.73
2024-04-18T00:56:54.978Z,4.66
2024-04-18T00:59:21.747Z,4.65
2024-04-18T01:01:51.433Z,4.67
2024-04-18T01:04:18.519Z,4.68
2024-04-18T01:06:49.035Z,4.71
2024-04-18T01:09:18.607Z,4.70
2024-04-18T01:11:47.995Z,4.66
2024-04-18T01:14:14.787Z,4.67
2024-04-18T01:16:44.097Z,4.57
2024-04-18T01:19:17.507Z,4.50
2024-04-18T01:21:46.891Z,4.44
2024-04-18T01:24:14.048Z,4.28
2024-04-18T01:26:46.016Z,4.29
2024-04-18T01:29:12.786Z,4.26
2024-04-18T01:31:42.134Z,4.23
2024-04-18T01:34:09.142Z,4.21
2024-04-18T01:36:38.578Z,4.22
2024-04-18T01:39:05.384Z,4.28
2024-04-18T01:41:34.740Z,4.29
2024-04-18T01:44:04.645Z,4.33
2024-04-18T01:46:33.986Z,4.37
2024-04-18T01:49:00.910Z,4.38
2024-04-18T01:51:30.312Z,4.37
2024-04-18T01:53:57.070Z,4.33
2024-04-18T01:56:26.588Z,4.33
2024-04-18T01:58:53.344Z,4.29
2024-04-18T02:01:30.845Z,4.27
2024-04-18T02:03:57.738Z,4.32
2024-04-18T02:06:27.188Z,4.30
2024-04-18T02:08:54.384Z,4.28
2024-04-18T02:11:23.726Z,4.28
2024-04-18T02:13:50.510Z,4.28
2024-04-18T02:16:19.834Z,4.32
2024-04-18T02:18:49.584Z,4.35
2024-04-18T02:21:19.101Z,4.34
2024-04-18T02:23:45.867Z,4.35
2024-04-18T02:26:15.466Z,4.37
2024-04-18T02:28:42.215Z,4.37
2024-04-18T02:31:11.586Z,4.37
2024-04-18T02:33:38.391Z,4.38
2024-04-18T02:36:10.707Z,4.36
2024-04-18T02:38:37.500Z,4.37
2024-04-18T02:41:07.819Z,4.33
2024-04-18T02:43:34.611Z,4.32
2024-04-18T02:46:04.038Z,4.33
2024-04-18T02:48:31.385Z,4.32
2024-04-18T02:51:00.842Z,4.34
2024-04-18T02:53:30.228Z,4.35
2024-04-18T02:55:59.584Z,4.36
2024-04-18T02:58:26.357Z,4.37
2024-04-18T03:00:55.805Z,4.38
2024-04-18T03:03:22.591Z,4.40
2024-04-18T03:05:51.947Z,4.41
2024-04-18T03:08:18.783Z,4.44
2024-04-18T03:10:56.482Z,4.47
2024-04-18T03:13:23.351Z,4.47
2024-04-18T03:15:52.701Z,4.43
2024-04-18T03:18:19.599Z,4.49
2024-04-18T03:20:55.232Z,4.45
2024-04-18T03:23:22.176Z,4.50
2024-04-18T03:25:52.217Z,4.49
2024-04-18T03:28:21.759Z,4.51
2024-04-18T03:30:51.254Z,4.55
2024-04-18T03:33:18.228Z,4.56
2024-04-18T03:35:47.616Z,4.57
2024-04-18T03:38:17.452Z,4.49
2024-04-18T03:40:57.395Z,4.51
2024-04-18T03:43:29.446Z,4.54
2024-04-18T03:46:00.666Z,4.52
2024-04-18T03:48:27.496Z,4.54
2024-04-18T03:50:56.910Z,4.60
2024-04-18T03:53:23.817Z,4.59
2024-04-18T03:55:53.156Z,4.57
2024-04-18T03:58:19.913Z,4.52
2024-04-18T04:00:52.775Z,4.62
2024-04-18T04:03:20.779Z,4.57
2024-04-18T04:05:51.118Z,4.58
2024-04-18T04:08:18.126Z,4.57
2024-04-18T04:10:47.482Z,4.61
2024-04-18T04:13:14.544Z,4.59
2024-04-18T04:15:43.972Z,4.64
2024-04-18T04:18:13.399Z,4.68
2024-04-18T04:20:42.808Z,4.69
2024-04-18T04:23:09.677Z,4.79
2024-04-18T04:25:39.151Z,4.77
2024-04-18T04:28:06.047Z,4.68
2024-04-18T04:30:35.416Z,4.64
2024-04-18T04:33:02.267Z,4.63
2024-04-18T04:35:34.286Z,4.64
2024-04-18T04:38:01.668Z,4.66
2024-04-18T04:40:31.030Z,4.48
2024-04-18T04:43:00.471Z,4.39
2024-04-18T04:45:30.149Z,4.39
2024-04-18T04:47:56.988Z,4.51
2024-04-18T04:50:26.454Z,4.52
2024-04-18T04:52:55.806Z,4.48
2024-04-18T04:55:25.183Z,4.54
2024-04-18T04:57:51.975Z,4.49
2024-04-18T05:00:21.432Z,4.44
2024-04-18T05:02:49.948Z,4.46
2024-04-18T05:05:19.452Z,4.58
2024-04-18T05:07:46.337Z,4.66
2024-04-18T05:10:18.467Z,4.70
2024-04-18T05:12:45.248Z,4.63
2024-04-18T05:15:14.695Z,4.72
2024-04-18T05:17:41.453Z,4.74
2024-04-18T05:20:11.497Z,4.66
2024-04-18T05:22:38.140Z,4.81
2024-04-18T05:25:10.578Z,4.86
2024-04-18T05:27:46.232Z,4.90
2024-04-18T05:30:32.093Z,4.98
2024-04-18T05:33:01.539Z,5.00
2024-04-18T05:35:30.895Z,4.97
2024-04-18T05:38:00.287Z,4.98
2024-04-18T05:40:29.872Z,5.02
2024-04-18T05:43:01.846Z,4.89
2024-04-18T05:45:31.241Z,4.95
2024-04-18T05:48:00.688Z,5.02
2024-04-18T05:50:30.230Z,5.13
2024-04-18T05:52:56.947Z,5.14
2024-04-18T05:55:26.383Z,5.10
2024-04-18T05:57:55.794Z,4.94
2024-04-18T06:00:27.812Z,5.10
2024-04-18T06:02:57.166Z,5.18
2024-04-18T06:05:26.524Z,5.08
2024-04-18T06:07:56.127Z,5.11
2024-04-18T06:10:25.522Z,5.22
2024-04-18T06:12:54.896Z,5.27
2024-04-18T06:15:26.916Z,5.24
2024-04-18T06:17:53.810Z,5.17
2024-04-18T06:20:23.417Z,5.39
2024-04-18T06:22:52.767Z,5.36
2024-04-18T06:25:22.184Z,5.48
2024-04-18T06:27:51.653Z,5.46
2024-04-18T06:30:21.304Z,5.48
2024-04-18T06:32:53.312Z,5.47
2024-04-18T06:35:22.691Z,5.52
2024-04-18T06:37:52.003Z,5.55
2024-04-18T06:40:24.613Z,5.56
2024-04-18T06:42:55.045Z,5.69
2024-04-18T06:45:26.333Z,5.69
2024-04-18T06:47:58.717Z,5.63
2024-04-18T06:50:30.156Z,5.65
2024-04-18T06:52:59.540Z,5.70
2024-04-18T06:55:28.927Z,5.69
2024-04-18T06:57:58.692Z,5.65
2024-04-18T07:00:28.400Z,5.65
2024-04-18T07:03:00.561Z,5.70
2024-04-18T07:05:27.519Z,5.74
2024-04-18T07:07:57.254Z,5.81
2024-04-18T07:10:26.707Z,5.85
2024-04-18T07:12:56.046Z,5.92
2024-04-18T07:15:25.596Z,6.06
2024-04-18T07:17:57.358Z,6.24
2024-04-18T07:20:29.459Z,6.30
2024-04-18T07:22:59.023Z,6.38
2024-04-18T07:25:25.795Z,6.32
2024-04-18T07:27:55.786Z,6.42
2024-04-18T07:30:25.245Z,6.60
2024-04-18T07:32:54.669Z,6.63
2024-04-18T07:35:24.591Z,6.62
2024-04-18T07:37:56.431Z,6.53
2024-04-18T07:40:25.791Z,6.69
2024-04-18T07:42:55.261Z,6.66
2024-04-18T07:45:24.867Z,6.78
2024-04-18T07:47:54.399Z,6.93
2024-04-18T07:50:23.861Z,6.93
2024-04-18T07:53:03.730Z,6.93
2024-04-18T07:55:38.769Z,6.88
2024-04-18T07:58:08.668Z,6.68
2024-04-18T08:00:39.658Z,6.56
2024-04-18T08:03:11.630Z,6.37
2024-04-18T08:05:43.826Z,6.30
2024-04-18T08:08:20.115Z,6.36
2024-04-18T08:11:08.430Z,6.32
2024-04-18T08:13:43.137Z,6.27
2024-04-18T08:16:15.666Z,6.20
2024-04-18T08:18:45.749Z,6.16
2024-04-18T08:21:15.219Z,6.15
2024-04-18T08:23:52.743Z,6.17
2024-04-18T08:26:22.314Z,6.20
2024-04-18T08:28:51.676Z,6.23
2024-04-18T08:31:21.057Z,6.27
2024-04-18T08:33:58.226Z,6.37
2024-04-18T08:36:32.320Z,6.50
2024-04-18T08:39:04.429Z,6.47
2024-04-18T08:41:38.310Z,6.43
2024-04-18T08:44:10.070Z,6.42
2024-04-18T08:46:40.222Z,6.37
2024-04-18T08:49:11.573Z,6.50
2024-04-18T08:51:41.921Z,6.55
2024-04-18T08:54:14.038Z,6.66
2024-04-18T08:56:49.679Z,6.75
2024-04-18T08:59:19.522Z,6.86
2024-04-18T09:01:49.757Z,6.97
2024-04-18T09:04:19.163Z,7.12
2024-04-18T09:06:48.524Z,7.18
2024-04-18T09:09:20.694Z,7.28
2024-04-18T09:11:50.066Z,7.27
2024-04-18T09:14:19.434Z,7.42
2024-04-18T09:16:48.766Z,7.65
2024-04-18T09:19:18.318Z,7.55
2024-04-18T09:21:48.121Z,7.33
2024-04-18T09:24:20.373Z,7.19
2024-04-18T09:26:49.937Z,7.16
2024-04-18T09:29:19.268Z,7.12
2024-04-18T09:31:49.283Z,7.04
2024-04-18T09:34:18.987Z,6.89
2024-04-18T09:36:49.341Z,6.56
2024-04-18T09:39:26.673Z,6.27
2024-04-18T09:42:03.894Z,6.16
2024-04-18T09:44:35.165Z,6.01
2024-04-18T09:47:04.616Z,5.84
2024-04-18T09:49:34.748Z,5.61
2024-04-18T09:52:04.692Z,5.51
2024-04-18T09:54:36.787Z,5.37
2024-04-18T09:57:07.653Z,5.20
2024-04-18T09:59:34.966Z,5.19
2024-04-18T10:02:06.114Z,5.10
2024-04-18T10:04:35.775Z,5.32
2024-04-18T10:07:05.540Z,5.37
2024-04-18T10:09:38.761Z,5.44
2024-04-18T10:12:09.921Z,5.52
2024-04-18T10:14:37.190Z,5.60
2024-04-18T10:17:08.682Z,5.63
2024-04-18T10:19:38.088Z,5.80
2024-04-18T10:22:23.305Z,5.90
2024-04-18T10:25:01.599Z,6.11
2024-04-18T10:27:30.985Z,6.33
2024-04-18T10:30:03.104Z,6.56
2024-04-18T10:32:33.895Z,6.56
2024-04-18T10:35:03.430Z,6.86
2024-04-18T10:37:32.826Z,7.16
2024-04-18T10:40:07.871Z,7.22
2024-04-18T10:42:40.770Z,7.48
2024-04-18T10:45:11.707Z,7.81
2024-04-18T10:47:42.453Z,8.19
2024-04-18T10:50:12.508Z,8.53
2024-04-18T10:52:41.840Z,8.84
2024-04-18T10:55:13.826Z,9.41
2024-04-18T10:57:40.663Z,9.79
2024-04-18T11:00:11.081Z,10.26
2024-04-18T11:02:40.515Z,10.76
2024-04-18T11:05:12.235Z,10.89
2024-04-18T11:07:42.378Z,10.73
2024-04-18T11:10:15.378Z,10.97
2024-04-18T11:12:44.912Z,11.12
2024-04-18T11:15:14.326Z,11.27
2024-04-18T11:17:43.800Z,11.10
2024-04-18T11:20:14.110Z,10.06
2024-04-18T11:22:42.982Z,8.83
2024-04-18T11:25:18.434Z,7.78
2024-04-18T11:27:47.830Z,6.98
2024-04-18T11:30:20.085Z,6.35
2024-04-18T11:32:55.891Z,6.15
2024-04-18T11:35:25.510Z,5.95
2024-04-18T11:37:52.462Z,5.87
2024-04-18T11:40:24.692Z,5.76
2024-04-18T11:42:54.179Z,5.65
2024-04-18T11:45:23.682Z,5.51
2024-04-18T11:47:59.325Z,5.35
2024-04-18T11:50:29.052Z,5.28
2024-04-18T11:52:58.599Z,5.14
2024-04-18T11:55:30.742Z,5.22
2024-04-18T11:58:00.065Z,5.35
2024-04-18T12:00:29.707Z,5.45
2024-04-18T12:02:59.324Z,5.51
2024-04-18T12:05:28.958Z,5.66
2024-04-18T12:07:58.322Z,5.70
2024-04-18T12:10:30.380Z,5.78
2024-04-18T12:12:59.731Z,5.87
2024-04-18T12:15:29.109Z,5.83
2024-04-18T12:17:59.281Z,5.73
2024-04-18T12:20:28.729Z,5.88
2024-04-18T12:22:58.171Z,6.00
2024-04-18T12:25:30.122Z,6.06
2024-04-18T12:27:59.476Z,6.01
2024-04-18T12:30:30.413Z,6.02
2024-04-18T12:33:00.247Z,6.05
2024-04-18T12:35:29.690Z,6.09
2024-04-18T12:37:59.054Z,6.17
2024-04-18T12:40:31.036Z,6.20
2024-04-18T12:43:00.391Z,6.34
2024-04-18T12:45:29.803Z,6.63
2024-04-18T12:48:01.582Z,6.86
2024-04-18T12:50:31.316Z,7.09
2024-04-18T12:53:00.710Z,7.38
2024-04-18T12:55:32.714Z,7.50
2024-04-18T12:58:02.609Z,7.87
2024-04-18T13:00:31.960Z,8.12
2024-04-18T13:03:01.527Z,8.85
2024-04-18T13:05:31.084Z,9.18
2024-04-18T13:08:00.484Z,9.59
2024-04-18T13:10:32.448Z,9.64
2024-04-18T13:13:01.826Z,9.44
2024-04-18T13:15:31.195Z,9.76
2024-04-18T13:18:00.570Z,9.94
2024-04-18T13:20:30.343Z,10.34
2024-04-18T13:22:59.530Z,10.48
2024-04-18T13:25:28.921Z,10.22
2024-04-18T13:28:00.908Z,9.92
2024-04-18T13:30:27.989Z,10.01
2024-04-18T13:32:57.428Z,9.85
2024-04-18T13:35:27.489Z,9.67
2024-04-18T13:37:58.393Z,9.53
2024-04-18T13:40:27.748Z,9.35
2024-04-18T13:42:57.362Z,9.16
2024-04-18T13:45:29.475Z,8.92
2024-04-18T13:47:59.037Z,8.77
2024-04-18T13:50:31.200Z,8.67
2024-04-18T13:53:00.602Z,8.63
2024-04-18T13:55:29.985Z,8.61
2024-04-18T13:58:00.039Z,8.72
2024-04-18T14:00:32.802Z,8.79
2024-04-18T14:03:02.463Z,8.90
2024-04-18T14:05:31.965Z,9.22
2024-04-18T14:08:01.292Z,9.43
2024-04-18T14:10:30.649Z,10.02
2024-04-18T14:12:59.995Z,10.46
2024-04-18T14:15:37.532Z,10.74
2024-04-18T14:18:24.061Z,10.71
2024-04-18T14:20:55.200Z,10.74
2024-04-18T14:23:24.647Z,10.45
2024-04-18T14:25:55.978Z,10.13
2024-04-18T14:28:31.706Z,9.76
2024-04-18T14:31:05.535Z,9.40
2024-04-18T14:33:35.042Z,9.12
2024-04-18T14:36:04.487Z,8.98
2024-04-18T14:38:33.863Z,8.79
2024-04-18T14:41:09.869Z,8.49
2024-04-18T14:43:41.781Z,7.73
2024-04-18T14:46:13.834Z,6.98
2024-04-18T14:48:43.278Z,6.50
2024-04-18T14:51:12.801Z,6.30
2024-04-18T14:53:42.213Z,6.23
2024-04-18T14:56:11.550Z,6.20
2024-04-18T14:58:42.090Z,6.23
2024-04-18T15:01:14.180Z,6.34
2024-04-18T15:03:43.676Z,6.34
2024-04-18T15:06:13.628Z,6.26
2024-04-18T15:08:43.628Z,6.38
2024-04-18T15:11:13.304Z,6.58
2024-04-18T15:13:43.071Z,6.87
2024-04-18T15:16:15.729Z,7.08
2024-04-18T15:18:45.208Z,7.10
2024-04-18T15:21:14.658Z,7.18
2024-04-18T15:23:44.010Z,7.36
2024-04-18T15:26:15.121Z,7.51
2024-04-18T15:28:44.477Z,7.65
2024-04-18T15:31:16.864Z,7.74
2024-04-18T15:33:46.261Z,7.83
2024-04-18T15:36:15.696Z,7.83
2024-04-18T15:38:45.036Z,7.79
2024-04-18T15:41:14.428Z,7.73
2024-04-18T15:43:43.987Z,7.73
2024-04-18T15:46:16.124Z,7.72
2024-04-18T15:48:45.511Z,7.73
2024-04-18T15:51:14.935Z,7.79
2024-04-18T15:53:44.369Z,7.85
2024-04-18T15:56:15.875Z,7.94
2024-04-18T15:58:43.934Z,8.08
2024-04-18T16:01:15.836Z,8.24
2024-04-18T16:03:45.287Z,8.36
2024-04-18T16:06:14.692Z,8.51
2024-04-18T16:08:44.071Z,8.79
2024-04-18T16:11:10.823Z,9.09
2024-04-18T16:13:40.168Z,9.20
2024-04-18T16:16:09.809Z,9.19
2024-04-18T16:18:42.000Z,9.20
2024-04-18T16:21:11.863Z,9.08
2024-04-18T16:23:41.599Z,8.99
2024-04-18T16:26:10.940Z,8.80
2024-04-18T16:28:42.555Z,8.56
2024-04-18T16:31:09.385Z,8.32
2024-04-18T16:33:41.388Z,8.11
2024-04-18T16:36:17.892Z,8.08
2024-04-18T16:38:53.748Z,8.06
2024-04-18T16:41:23.494Z,7.97
2024-04-18T16:43:52.801Z,7.81
2024-04-18T16:46:22.172Z,7.75
2024-04-18T16:48:54.516Z,7.60
2024-04-18T16:51:24.031Z,7.48
2024-04-18T16:53:55.343Z,7.35
2024-04-18T16:56:25.584Z,7.41
2024-04-18T16:58:55.088Z,7.47
2024-04-18T17:01:24.603Z,7.43
2024-04-18T17:03:56.845Z,7.56
2024-04-18T17:06:35.151Z,7.57
2024-04-18T17:09:10.385Z,7.66
2024-04-18T17:11:39.735Z,7.73
2024-04-18T17:14:09.107Z,7.78
2024-04-18T17:16:38.579Z,7.81
2024-04-18T17:19:10.641Z,7.84
2024-04-18T17:21:42.701Z,7.80
2024-04-18T17:24:12.123Z,7.59
2024-04-18T17:26:41.491Z,7.69
2024-04-18T17:29:10.887Z,7.55
2024-04-18T17:31:40.890Z,7.53
2024-04-18T17:34:14.250Z,7.44
2024-04-18T17:36:43.640Z,7.44
2024-04-18T17:39:13.229Z,7.36
2024-04-18T17:41:42.610Z,7.27
2024-04-18T17:44:12.010Z,7.18
2024-04-18T17:46:42.152Z,7.15
2024-04-18T17:49:14.310Z,7.09
2024-04-18T17:51:43.715Z,7.03
2024-04-18T17:54:13.267Z,6.98
2024-04-18T17:56:42.609Z,6.96
2024-04-18T17:59:13.078Z,7.02
2024-04-18T18:01:44.047Z,7.05
2024-04-18T18:04:17.532Z,6.97
2024-04-18T18:06:47.145Z,6.94
2024-04-18T18:09:16.654Z,6.88
2024-04-18T18:11:46.174Z,6.83
2024-04-18T18:14:15.662Z,6.80
2024-04-18T18:16:44.996Z,6.76
2024-04-18T18:19:17.224Z,6.74
2024-04-18T18:21:46.723Z,6.72
2024-04-18T18:24:16.235Z,6.61
2024-04-18T18:26:45.799Z,6.56
2024-04-18T18:29:12.612Z,6.45
2024-04-18T18:31:42.495Z,6.35
2024-04-18T18:34:11.211Z,6.27
2024-04-18T18:36:43.295Z,6.19
2024-04-18T18:39:10.201Z,6.13
2024-04-18T18:41:40.020Z,6.09
2024-04-18T18:44:07.742Z,6.01
2024-04-18T18:46:37.112Z,5.97
2024-04-18T18:49:04.012Z,5.94
2024-04-18T18:51:34.801Z,5.91
2024-04-18T18:54:04.565Z,5.89
2024-04-18T18:56:33.906Z,5.86
2024-04-18T18:59:00.677Z,5.83
2024-04-18T19:01:30.013Z,5.80
2024-04-18T19:03:56.911Z,5.77
2024-04-18T19:06:27.203Z,5.72
2024-04-18T19:08:56.885Z,5.69
2024-04-18T19:11:29.091Z,5.64
2024-04-18T19:13:56.169Z,5.59
2024-04-18T19:16:25.521Z,5.52
2024-04-18T19:18:52.408Z,5.52
2024-04-18T19:21:22.056Z,5.49
2024-04-18T19:23:48.945Z,5.48
2024-04-18T19:26:19.869Z,5.45
2024-04-18T19:28:49.322Z,5.46
2024-04-18T19:31:20.750Z,5.46
2024-04-18T19:33:47.665Z,5.51
2024-04-18T19:36:17.281Z,5.55
2024-04-18T19:38:45.808Z,5.58
2024-04-18T19:41:15.216Z,5.61
2024-04-18T19:43:41.989Z,5.62
2024-04-18T19:46:13.958Z,5.65
2024-04-18T19:48:40.826Z,5.60
2024-04-18T19:51:10.449Z,5.63
2024-04-18T19:53:37.591Z,5.63
2024-04-18T19:56:07.519Z,5.59
2024-04-18T19:58:34.297Z,5.56
2024-04-18T20:01:06.421Z,5.56
2024-04-18T20:03:36.553Z,5.61
2024-04-18T20:06:06.289Z,5.58
2024-04-18T20:08:33.098Z,5.62
2024-04-18T20:11:02.630Z,5.66
2024-04-18T20:13:29.466Z,5.70
2024-04-18T20:15:58.946Z,5.73
2024-04-18T20:18:25.820Z,5.61
2024-04-18T20:20:57.884Z,5.78
2024-04-18T20:23:24.778Z,5.78
2024-04-18T20:25:54.322Z,5.72
2024-04-18T20:28:21.140Z,5.64
2024-04-18T20:30:50.625Z,5.61
2024-04-18T20:33:17.490Z,5.58
2024-04-18T20:35:46.999Z,5.53
2024-04-18T20:38:16.381Z,5.53
2024-04-18T20:40:45.819Z,5.53
2024-04-18T20:43:12.576Z,5.48
2024-04-18T20:45:41.951Z,5.44
2024-04-18T20:48:09.088Z,5.37
2024-04-18T20:50:38.681Z,5.24
2024-04-18T20:53:05.694Z,5.35
2024-04-18T20:55:37.682Z,5.35
2024-04-18T20:58:05.066Z,5.35
2024-04-18T21:00:34.549Z,5.35
2024-04-18T21:03:01.497Z,5.38
2024-04-18T21:05:30.973Z,5.41
2024-04-18T21:07:57.832Z,5.39
2024-04-18T21:10:27.395Z,5.39
2024-04-18T21:12:56.930Z,5.34
2024-04-18T21:15:26.528Z,5.32
2024-04-18T21:17:55.122Z,5.29
2024-04-18T21:20:24.680Z,5.27
2024-04-18T21:22:54.712Z,5.27
2024-04-18T21:25:24.406Z,5.27
2024-04-18T21:27:51.417Z,5.27
2024-04-18T21:30:23.654Z,5.27
2024-04-18T21:32:53.524Z,5.28
2024-04-18T21:35:23.615Z,5.30
2024-04-18T21:37:50.503Z,5.34
2024-04-18T21:40:20.048Z,5.36
2024-04-18T21:42:46.977Z,5.35
2024-04-18T21:45:16.484Z,5.36
2024-04-18T21:47:46.139Z,5.36
2024-04-18T21:50:15.733Z,5.39
2024-04-18T21:52:42.615Z,5.37
2024-04-18T21:55:15.391Z,5.38
2024-04-18T21:57:42.721Z,5.41
2024-04-18T22:00:13.087Z,5.41
2024-04-18T22:02:40.019Z,5.38
2024-04-18T22:05:12.494Z,5.32
2024-04-18T22:07:39.340Z,5.38
2024-04-18T22:10:10.259Z,5.40
2024-04-18T22:12:37.185Z,5.37
2024-04-18T22:15:07.313Z,5.31
2024-04-18T22:17:36.812Z,5.29
2024-04-18T22:20:03.933Z,5.32
2024-04-18T22:22:36.028Z,5.33
2024-04-18T22:25:02.877Z,5.32
2024-04-18T22:27:32.327Z,5.26
2024-04-18T22:29:59.214Z,5.23
2024-04-18T22:32:28.749Z,5.26
2024-04-18T22:34:56.524Z,5.21
2024-04-18T22:37:26.027Z,5.13
2024-04-18T22:39:55.510Z,5.21
2024-04-18T22:42:25.003Z,5.16
2024-04-18T22:44:51.881Z,5.11
2024-04-18T22:47:21.348Z,5.12
2024-04-18T22:49:48.241Z,5.20
2024-04-18T22:52:17.699Z,5.21
2024-04-18T22:54:44.722Z,5.19
2024-04-18T22:57:17.046Z,5.17
2024-04-18T22:59:46.455Z,5.23
2024-04-18T23:02:16.483Z,5.30
2024-04-18T23:04:43.489Z,5.23
2024-04-18T23:07:13.375Z,5.25
2024-04-18T23:09:40.337Z,5.34
2024-04-18T23:12:10.187Z,5.33
2024-04-18T23:14:39.551Z,5.36
2024-04-18T23:17:09.048Z,5.33
2024-04-18T23:19:35.925Z,5.32
2024-04-18T23:22:06.650Z,5.31
2024-04-18T23:24:33.637Z,5.30
2024-04-18T23:27:03.111Z,5.30
2024-04-18T23:29:30.766Z,5.23
2024-04-18T23:32:02.935Z,5.29
2024-04-18T23:34:29.819Z,5.30
2024-04-18T23:36:59.313Z,5.35
2024-04-18T23:39:26.178Z,5.33
2024-04-18T23:41:55.628Z,5.30
2024-04-18T23:44:22.527Z,5.25
2024-04-18T23:46:52.028Z,5.25
2024-04-18T23:49:21.527Z,5.21
2024-04-18T23:51:50.991Z,5.22
2024-04-18T23:54:18.912Z,5.12
2024-04-18T23:56:48.373Z,5.14
2024-04-18T23:59:15.276Z,5.16
